sensor_id;sensor_type;location;lat;lon;timestamp;pressure;altitude;pressure_sealevel;temperature;humidity
80826;BME280;70237;48.502;9.200;2023-05-17T16:15:26;97926.97;;;24.18;22.86
80826;BME280;70237;48.502;9.200;2023-05-17T16:20:39;97927.34;;;19.48;27.58
80826;BME280;70237;48.502;9.200;2023-05-17T16:22:59;97933.33;;;20.88;21.72
80826;BME280;70237;48.502;9.200;2023-05-17T16:25:24;97933.08;;;21.37;21.72
80826;BME280;70237;48.502;9.200;2023-05-17T16:27:50;97939.39;;;22.48;20.72
80826;BME280;70237;48.502;9.200;2023-05-17T16:30:15;97936.16;;;21.76;20.97
80826;BME280;70237;48.502;9.200;2023-05-17T16:32:41;97932.29;;;20.08;21.43
80826;BME280;70237;48.502;9.200;2023-05-17T16:35:07;97935.50;;;20.45;21.67
80826;BME280;70237;48.502;9.200;2023-05-17T16:37:31;97929.38;;;20.20;21.84
80826;BME280;70237;48.502;9.200;2023-05-17T16:39:57;97925.32;;;20.32;21.91
80826;BME280;70237;48.502;9.200;2023-05-17T16:42:22;97922.77;;;19.29;22.72
80826;BME280;70237;48.502;9.200;2023-05-17T16:44:47;97933.03;;;19.34;23.31
80826;BME280;70237;48.502;9.200;2023-05-17T16:47:13;97931.43;;;19.20;23.87
80826;BME280;70237;48.502;9.200;2023-05-17T16:49:38;97937.05;;;18.55;24.27
80826;BME280;70237;48.502;9.200;2023-05-17T16:52:04;97933.81;;;17.62;25.25
80826;BME280;70237;48.502;9.200;2023-05-17T16:54:29;97938.64;;;18.10;25.15
80826;BME280;70237;48.502;9.200;2023-05-17T16:56:55;97939.43;;;19.25;24.41
80826;BME280;70237;48.502;9.200;2023-05-17T16:59:20;97940.83;;;18.67;24.32
80826;BME280;70237;48.502;9.200;2023-05-17T17:01:46;97940.34;;;19.46;23.86
80826;BME280;70237;48.502;9.200;2023-05-17T17:04:11;97938.84;;;18.23;24.80
80826;BME280;70237;48.502;9.200;2023-05-17T17:06:37;97940.17;;;19.30;24.32
80826;BME280;70237;48.502;9.200;2023-05-17T17:09:02;97936.87;;;18.20;24.61
80826;BME280;70237;48.502;9.200;2023-05-17T17:11:28;97936.56;;;17.95;24.52
80826;BME280;70237;48.502;9.200;2023-05-17T17:13:53;97937.18;;;17.37;25.10
80826;BME280;70237;48.502;9.200;2023-05-17T17:16:18;97938.64;;;17.24;25.33
80826;BME280;70237;48.502;9.200;2023-05-17T17:18:44;97937.78;;;17.47;25.40
80826;BME280;70237;48.502;9.200;2023-05-17T17:21:10;97937.92;;;17.16;25.77
80826;BME280;70237;48.502;9.200;2023-05-17T17:23:35;97938.41;;;17.64;25.68
80826;BME280;70237;48.502;9.200;2023-05-17T17:26:00;97941.34;;;17.71;25.31
80826;BME280;70237;48.502;9.200;2023-05-17T17:28:26;97939.72;;;17.66;25.11
80826;BME280;70237;48.502;9.200;2023-05-17T17:30:51;97937.81;;;18.34;24.48
80826;BME280;70237;48.502;9.200;2023-05-17T17:33:17;97943.00;;;17.51;24.93
80826;BME280;70237;48.502;9.200;2023-05-17T17:35:42;97937.82;;;18.47;24.39
80826;BME280;70237;48.502;9.200;2023-05-17T17:38:09;97940.39;;;17.90;24.82
80826;BME280;70237;48.502;9.200;2023-05-17T17:40:33;97942.29;;;18.28;24.67
80826;BME280;70237;48.502;9.200;2023-05-17T17:42:58;97943.56;;;18.15;24.86
80826;BME280;70237;48.502;9.200;2023-05-17T17:45:24;97942.89;;;17.78;25.22
80826;BME280;70237;48.502;9.200;2023-05-17T17:47:49;97944.23;;;17.73;25.43
80826;BME280;70237;48.502;9.200;2023-05-17T17:50:15;97945.52;;;18.01;24.95
80826;BME280;70237;48.502;9.200;2023-05-17T17:52:40;97942.16;;;17.36;25.20
80826;BME280;70237;48.502;9.200;2023-05-17T17:55:07;97935.21;;;16.53;27.77
80826;BME280;70237;48.502;9.200;2023-05-17T17:57:31;97935.67;;;16.44;27.88
80826;BME280;70237;48.502;9.200;2023-05-17T17:59:57;97939.60;;;15.23;28.93
80826;BME280;70237;48.502;9.200;2023-05-17T18:02:22;97945.80;;;14.72;29.97
80826;BME280;70237;48.502;9.200;2023-05-17T18:04:47;97948.31;;;14.66;32.13
80826;BME280;70237;48.502;9.200;2023-05-17T18:07:13;97953.02;;;13.53;32.20
80826;BME280;70237;48.502;9.200;2023-05-17T18:09:38;97955.70;;;14.02;32.19
80826;BME280;70237;48.502;9.200;2023-05-17T18:12:05;97956.63;;;14.63;31.11
80826;BME280;70237;48.502;9.200;2023-05-17T18:14:30;97958.44;;;14.19;31.39
80826;BME280;70237;48.502;9.200;2023-05-17T18:16:55;97961.70;;;13.63;32.21
80826;BME280;70237;48.502;9.200;2023-05-17T18:19:21;97958.61;;;11.71;34.60
80826;BME280;70237;48.502;9.200;2023-05-17T18:21:46;97960.55;;;12.63;33.63
80826;BME280;70237;48.502;9.200;2023-05-17T18:24:12;97960.58;;;12.95;33.40
80826;BME280;70237;48.502;9.200;2023-05-17T18:26:37;97961.99;;;13.49;32.95
80826;BME280;70237;48.502;9.200;2023-05-17T18:29:02;97961.72;;;13.23;33.17
80826;BME280;70237;48.502;9.200;2023-05-17T18:31:28;97962.38;;;13.14;33.23
80826;BME280;70237;48.502;9.200;2023-05-17T18:33:54;97962.39;;;13.56;32.78
80826;BME280;70237;48.502;9.200;2023-05-17T18:36:19;97960.19;;;13.80;32.82
80826;BME280;70237;48.502;9.200;2023-05-17T18:38:45;97957.89;;;11.62;35.08
80826;BME280;70237;48.502;9.200;2023-05-17T18:41:10;97958.89;;;11.93;35.04
80826;BME280;70237;48.502;9.200;2023-05-17T18:43:35;97959.00;;;13.02;33.72
80826;BME280;70237;48.502;9.200;2023-05-17T18:46:01;97961.46;;;13.25;34.10
80826;BME280;70237;48.502;9.200;2023-05-17T18:48:26;97963.10;;;13.06;34.00
80826;BME280;70237;48.502;9.200;2023-05-17T18:50:51;97965.56;;;12.38;34.65
80826;BME280;70237;48.502;9.200;2023-05-17T18:53:17;97966.45;;;12.56;34.09
80826;BME280;70237;48.502;9.200;2023-05-17T18:55:43;97967.61;;;12.07;34.55
80826;BME280;70237;48.502;9.200;2023-05-17T18:58:08;97964.69;;;12.01;34.91
80826;BME280;70237;48.502;9.200;2023-05-17T19:00:33;97967.18;;;12.08;34.81
80826;BME280;70237;48.502;9.200;2023-05-17T19:02:59;97969.85;;;12.46;34.62
80826;BME280;70237;48.502;9.200;2023-05-17T19:05:25;97971.80;;;12.14;35.11
80826;BME280;70237;48.502;9.200;2023-05-17T19:07:50;97973.61;;;11.64;35.66
80826;BME280;70237;48.502;9.200;2023-05-17T19:10:16;97974.64;;;12.17;35.29
80826;BME280;70237;48.502;9.200;2023-05-17T19:12:42;97975.25;;;12.47;34.84
80826;BME280;70237;48.502;9.200;2023-05-17T19:15:07;97974.09;;;12.47;35.00
80826;BME280;70237;48.502;9.200;2023-05-17T19:17:32;97978.14;;;11.44;36.13
80826;BME280;70237;48.502;9.200;2023-05-17T19:19:58;97981.43;;;11.91;35.95
80826;BME280;70237;48.502;9.200;2023-05-17T19:22:23;97980.62;;;11.31;36.81
80826;BME280;70237;48.502;9.200;2023-05-17T19:24:49;97979.47;;;11.39;37.03
80826;BME280;70237;48.502;9.200;2023-05-17T19:27:14;97982.04;;;11.07;37.31
80826;BME280;70237;48.502;9.200;2023-05-17T19:29:40;97983.98;;;11.83;36.55
80826;BME280;70237;48.502;9.200;2023-05-17T19:32:06;97986.73;;;11.31;37.33
80826;BME280;70237;48.502;9.200;2023-05-17T19:34:31;97988.62;;;10.93;38.00
80826;BME280;70237;48.502;9.200;2023-05-17T19:36:57;97981.47;;;11.62;37.29
80826;BME280;70237;48.502;9.200;2023-05-17T19:39:22;97981.86;;;11.12;37.87
80826;BME280;70237;48.502;9.200;2023-05-17T19:41:48;97982.17;;;10.64;38.24
80826;BME280;70237;48.502;9.200;2023-05-17T19:44:13;97977.52;;;11.27;37.36
80826;BME280;70237;48.502;9.200;2023-05-17T19:46:38;97981.69;;;11.07;37.89
80826;BME280;70237;48.502;9.200;2023-05-17T19:49:04;97982.93;;;10.65;38.36
80826;BME280;70237;48.502;9.200;2023-05-17T19:51:29;97986.86;;;10.63;38.93
80826;BME280;70237;48.502;9.200;2023-05-17T19:53:55;97987.34;;;10.95;38.41
80826;BME280;70237;48.502;9.200;2023-05-17T19:56:22;97985.77;;;11.22;38.12
80826;BME280;70237;48.502;9.200;2023-05-17T19:58:46;97989.18;;;11.15;37.89
80826;BME280;70237;48.502;9.200;2023-05-17T20:01:11;97989.61;;;11.04;38.39
80826;BME280;70237;48.502;9.200;2023-05-17T20:03:37;97990.18;;;10.84;38.76
80826;BME280;70237;48.502;9.200;2023-05-17T20:06:02;97988.88;;;10.85;38.85
80826;BME280;70237;48.502;9.200;2023-05-17T20:08:28;97989.03;;;10.62;39.27
80826;BME280;70237;48.502;9.200;2023-05-17T20:10:54;97988.31;;;10.35;40.02
80826;BME280;70237;48.502;9.200;2023-05-17T20:13:19;97987.80;;;11.13;38.64
80826;BME280;70237;48.502;9.200;2023-05-17T20:15:44;97983.95;;;10.78;39.12
80826;BME280;70237;48.502;9.200;2023-05-17T20:18:10;97984.95;;;10.72;39.77
80826;BME280;70237;48.502;9.200;2023-05-17T20:20:35;97987.75;;;11.00;39.24
80826;BME280;70237;48.502;9.200;2023-05-17T20:23:01;97989.91;;;11.15;38.69
80826;BME280;70237;48.502;9.200;2023-05-17T20:25:27;97994.31;;;10.80;39.27
80826;BME280;70237;48.502;9.200;2023-05-17T20:27:52;97995.01;;;10.61;39.47
80826;BME280;70237;48.502;9.200;2023-05-17T20:30:18;97992.42;;;10.47;39.45
80826;BME280;70237;48.502;9.200;2023-05-17T20:32:43;97993.42;;;10.62;39.30
80826;BME280;70237;48.502;9.200;2023-05-17T20:35:09;97995.49;;;11.13;39.21
80826;BME280;70237;48.502;9.200;2023-05-17T20:37:33;97997.48;;;11.38;39.02
80826;BME280;70237;48.502;9.200;2023-05-17T20:39:58;97998.95;;;10.57;39.44
80826;BME280;70237;48.502;9.200;2023-05-17T20:42:24;97998.25;;;10.49;39.72
80826;BME280;70237;48.502;9.200;2023-05-17T20:44:50;97999.86;;;10.35;40.65
80826;BME280;70237;48.502;9.200;2023-05-17T20:47:15;98000.80;;;10.06;40.75
80826;BME280;70237;48.502;9.200;2023-05-17T20:49:41;98000.02;;;10.65;39.97
80826;BME280;70237;48.502;9.200;2023-05-17T20:52:07;98001.55;;;10.85;40.06
80826;BME280;70237;48.502;9.200;2023-05-17T20:54:33;98003.39;;;10.96;40.02
80826;BME280;70237;48.502;9.200;2023-05-17T20:56:58;98002.20;;;10.27;40.62
80826;BME280;70237;48.502;9.200;2023-05-17T20:59:23;97999.90;;;10.24;41.46
80826;BME280;70237;48.502;9.200;2023-05-17T21:01:49;97998.73;;;10.29;41.91
80826;BME280;70237;48.502;9.200;2023-05-17T21:04:14;98000.88;;;10.33;42.02
80826;BME280;70237;48.502;9.200;2023-05-17T21:06:39;97998.45;;;10.34;42.24
80826;BME280;70237;48.502;9.200;2023-05-17T21:09:06;97997.76;;;9.62;43.24
80826;BME280;70237;48.502;9.200;2023-05-17T21:11:30;97996.97;;;9.52;43.79
80826;BME280;70237;48.502;9.200;2023-05-17T21:13:55;97992.72;;;9.70;43.71
80826;BME280;70237;48.502;9.200;2023-05-17T21:16:21;97992.67;;;8.71;44.91
80826;BME280;70237;48.502;9.200;2023-05-17T21:18:46;97994.15;;;9.19;44.31
80826;BME280;70237;48.502;9.200;2023-05-17T21:21:12;97990.65;;;8.90;44.52
80826;BME280;70237;48.502;9.200;2023-05-17T21:23:37;97987.73;;;8.62;45.09
80826;BME280;70237;48.502;9.200;2023-05-17T21:26:04;97985.98;;;8.40;45.07
80826;BME280;70237;48.502;9.200;2023-05-17T21:28:28;97984.64;;;8.57;45.11
80826;BME280;70237;48.502;9.200;2023-05-17T21:30:54;97981.00;;;8.26;46.38
80826;BME280;70237;48.502;9.200;2023-05-17T21:33:19;97980.72;;;8.10;46.47
80826;BME280;70237;48.502;9.200;2023-05-17T21:35:44;97978.12;;;8.77;45.07
80826;BME280;70237;48.502;9.200;2023-05-17T21:38:10;97980.41;;;9.40;43.98
80826;BME280;70237;48.502;9.200;2023-05-17T21:40:35;97983.32;;;9.75;43.72
80826;BME280;70237;48.502;9.200;2023-05-17T21:43:01;97984.26;;;8.81;44.16
80826;BME280;70237;48.502;9.200;2023-05-17T21:45:27;97986.92;;;8.75;44.44
80826;BME280;70237;48.502;9.200;2023-05-17T21:47:52;97983.79;;;8.70;44.21
80826;BME280;70237;48.502;9.200;2023-05-17T21:50:17;97984.79;;;8.98;44.53
80826;BME280;70237;48.502;9.200;2023-05-17T21:52:42;97979.15;;;8.36;45.75
80826;BME280;70237;48.502;9.200;2023-05-17T21:55:08;97981.03;;;7.57;47.18
80826;BME280;70237;48.502;9.200;2023-05-17T21:57:34;97980.56;;;8.11;46.47
80826;BME280;70237;48.502;9.200;2023-05-17T22:00:00;97978.77;;;7.52;47.48
80826;BME280;70237;48.502;9.200;2023-05-17T22:02:25;97980.69;;;7.91;46.68
80826;BME280;70237;48.502;9.200;2023-05-17T22:04:50;97981.08;;;8.46;45.60
80826;BME280;70237;48.502;9.200;2023-05-17T22:07:16;97980.38;;;7.80;46.76
80826;BME280;70237;48.502;9.200;2023-05-17T22:09:41;97981.07;;;7.96;45.96
80826;BME280;70237;48.502;9.200;2023-05-17T22:12:07;97978.59;;;7.53;46.73
80826;BME280;70237;48.502;9.200;2023-05-17T22:14:32;97976.71;;;7.48;46.74
80826;BME280;70237;48.502;9.200;2023-05-17T22:16:58;97971.10;;;6.63;47.95
80826;BME280;70237;48.502;9.200;2023-05-17T22:19:23;97971.95;;;7.47;47.03
80826;BME280;70237;48.502;9.200;2023-05-17T22:21:49;97968.60;;;7.27;47.37
80826;BME280;70237;48.502;9.200;2023-05-17T22:24:14;97971.05;;;7.35;46.87
80826;BME280;70237;48.502;9.200;2023-05-17T22:26:39;97972.66;;;7.62;46.92
80826;BME280;70237;48.502;9.200;2023-05-17T22:29:04;97974.99;;;7.28;47.45
80826;BME280;70237;48.502;9.200;2023-05-17T22:31:29;97976.45;;;7.29;47.49
80826;BME280;70237;48.502;9.200;2023-05-17T22:33:55;97971.34;;;7.26;47.20
80826;BME280;70237;48.502;9.200;2023-05-17T22:36:20;97969.83;;;7.60;46.76
80826;BME280;70237;48.502;9.200;2023-05-17T22:38:45;97965.99;;;7.62;46.99
80826;BME280;70237;48.502;9.200;2023-05-17T22:41:11;97960.74;;;7.41;47.47
80826;BME280;70237;48.502;9.200;2023-05-17T22:43:36;97958.95;;;7.12;47.73
80826;BME280;70237;48.502;9.200;2023-05-17T22:46:02;97956.26;;;7.53;47.23
80826;BME280;70237;48.502;9.200;2023-05-17T22:48:27;97954.57;;;7.27;47.90
80826;BME280;70237;48.502;9.200;2023-05-17T22:50:52;97955.45;;;6.97;47.73
80826;BME280;70237;48.502;9.200;2023-05-17T22:53:17;97952.73;;;6.91;48.75
80826;BME280;70237;48.502;9.200;2023-05-17T22:55:42;97954.59;;;7.24;47.99
80826;BME280;70237;48.502;9.200;2023-05-17T22:58:07;97956.61;;;7.04;48.21
80826;BME280;70237;48.502;9.200;2023-05-17T23:00:33;97955.52;;;6.57;49.18
80826;BME280;70237;48.502;9.200;2023-05-17T23:02:58;97952.99;;;6.92;48.63
80826;BME280;70237;48.502;9.200;2023-05-17T23:05:24;97956.58;;;7.14;47.78
80826;BME280;70237;48.502;9.200;2023-05-17T23:07:50;97955.09;;;7.77;47.21
80826;BME280;70237;48.502;9.200;2023-05-17T23:10:15;97958.57;;;8.09;46.58
80826;BME280;70237;48.502;9.200;2023-05-17T23:12:40;97957.16;;;7.60;47.49
80826;BME280;70237;48.502;9.200;2023-05-17T23:15:07;97956.29;;;6.88;48.59
80826;BME280;70237;48.502;9.200;2023-05-17T23:17:32;97953.11;;;7.53;47.53
80826;BME280;70237;48.502;9.200;2023-05-17T23:19:57;97954.17;;;6.97;48.41
80826;BME280;70237;48.502;9.200;2023-05-17T23:22:22;97955.20;;;7.90;46.79
80826;BME280;70237;48.502;9.200;2023-05-17T23:24:48;97950.72;;;8.12;46.36
80826;BME280;70237;48.502;9.200;2023-05-17T23:27:14;97949.68;;;8.26;46.28
80826;BME280;70237;48.502;9.200;2023-05-17T23:29:39;97946.55;;;7.42;47.38
80826;BME280;70237;48.502;9.200;2023-05-17T23:32:05;97943.22;;;7.16;47.99
80826;BME280;70237;48.502;9.200;2023-05-17T23:34:30;97944.01;;;7.54;47.90
80826;BME280;70237;48.502;9.200;2023-05-17T23:36:55;97944.32;;;6.96;48.43
80826;BME280;70237;48.502;9.200;2023-05-17T23:39:21;97944.05;;;7.16;47.94
80826;BME280;70237;48.502;9.200;2023-05-17T23:41:46;97938.04;;;6.94;48.53
80826;BME280;70237;48.502;9.200;2023-05-17T23:44:12;97935.23;;;6.73;48.82
80826;BME280;70237;48.502;9.200;2023-05-17T23:46:37;97932.14;;;7.30;48.41
80826;BME280;70237;48.502;9.200;2023-05-17T23:49:02;97930.96;;;7.13;48.14
80826;BME280;70237;48.502;9.200;2023-05-17T23:51:28;97927.59;;;6.83;48.86
80826;BME280;70237;48.502;9.200;2023-05-17T23:53:54;97926.59;;;6.38;49.45
80826;BME280;70237;48.502;9.200;2023-05-17T23:56:20;97924.69;;;6.86;48.61
80826;BME280;70237;48.502;9.200;2023-05-17T23:58:46;97925.89;;;6.38;49.19
